sensor_id;sensor_type;location;lat;lon;timestamp;pressure;altitude;pressure_sealevel;temperature;humidity
9419;BME280;4748;50.802;7.132;2022-12-18T00:01:39;102348.88;;;-4.48;100.00
9419;BME280;4748;50.802;7.132;2022-12-18T00:04:06;102350.66;;;-4.48;100.00
9419;BME280;4748;50.802;7.132;2022-12-18T00:06:35;102343.16;;;-4.54;100.00
9419;BME280;4748;50.802;7.132;2022-12-18T00:09:02;102356.47;;;-4.58;100.00
9419;BME280;4748;50.802;7.132;2022-12-18T00:11:30;102359.09;;;-4.58;100.00
9419;BME280;4748;50.802;7.132;2022-12-18T00:13:57;102359.09;;;-4.58;100.00
9419;BME280;4748;50.802;7.132;2022-12-18T00:16:24;102355.84;;;-4.63;100.00
9419;BME280;4748;50.802;7.132;2022-12-18T00:18:52;102350.56;;;-4.62;100.00
9419;BME280;4748;50.802;7.132;2022-12-18T00:21:19;102347.84;;;-4.60;100.00
9419;BME280;4748;50.802;7.132;2022-12-18T00:23:46;102354.78;;;-4.59;100.00
9419;BME280;4748;50.802;7.132;2022-12-18T00:26:17;102355.47;;;-4.56;100.00
9419;BME280;4748;50.802;7.132;2022-12-18T00:28:44;102354.44;;;-4.54;100.00
9419;BME280;4748;50.802;7.132;2022-12-18T00:31:12;102355.47;;;-4.56;100.00
9419;BME280;4748;50.802;7.132;2022-12-18T00:33:38;102365.84;;;-4.55;100.00
9419;BME280;4748;50.802;7.132;2022-12-18T00:36:15;102362.44;;;-4.57;100.00
9419;BME280;4748;50.802;7.132;2022-12-18T00:38:42;102356.63;;;-4.61;100.00
9419;BME280;4748;50.802;7.132;2022-12-18T00:41:08;102359.50;;;-4.66;100.00
9419;BME280;4748;50.802;7.132;2022-12-18T00:43:34;102361.00;;;-4.62;100.00
9419;BME280;4748;50.802;7.132;2022-12-18T00:46:00;102371.69;;;-4.66;100.00
9419;BME280;4748;50.802;7.132;2022-12-18T00:48:28;102377.16;;;-4.71;100.00
9419;BME280;4748;50.802;7.132;2022-12-18T00:50:53;102367.25;;;-4.64;100.00
9419;BME280;4748;50.802;7.132;2022-12-18T00:53:19;102362.88;;;-4.64;100.00
9419;BME280;4748;50.802;7.132;2022-12-18T00:55:45;102354.78;;;-4.59;100.00
9419;BME280;4748;50.802;7.132;2022-12-18T00:58:12;102355.94;;;-4.65;100.00
9419;BME280;4748;50.802;7.132;2022-12-18T01:00:38;102358.47;;;-4.63;100.00
9419;BME280;4748;50.802;7.132;2022-12-18T01:03:04;102351.50;;;-4.63;100.00
9419;BME280;4748;50.802;7.132;2022-12-18T01:05:29;102354.94;;;-4.62;100.00
9419;BME280;4748;50.802;7.132;2022-12-18T01:07:55;102350.63;;;-4.63;100.00
9419;BME280;4748;50.802;7.132;2022-12-18T01:10:21;102350.56;;;-4.62;100.00
9419;BME280;4748;50.802;7.132;2022-12-18T01:12:46;102351.59;;;-4.64;100.00
9419;BME280;4748;50.802;7.132;2022-12-18T01:15:13;102351.50;;;-4.63;100.00
9419;BME280;4748;50.802;7.132;2022-12-18T01:17:38;102351.06;;;-4.71;100.00
9419;BME280;4748;50.802;7.132;2022-12-18T01:20:04;102353.75;;;-4.72;100.00
9419;BME280;4748;50.802;7.132;2022-12-18T01:22:33;102350.22;;;-4.71;100.00
9419;BME280;4748;50.802;7.132;2022-12-18T01:24:58;102346.00;;;-4.74;100.00
9419;BME280;4748;50.802;7.132;2022-12-18T01:27:23;102353.31;;;-4.80;100.00
9419;BME280;4748;50.802;7.132;2022-12-18T01:29:49;102355.75;;;-4.77;100.00
9419;BME280;4748;50.802;7.132;2022-12-18T01:32:14;102351.38;;;-4.77;100.00
9419;BME280;4748;50.802;7.132;2022-12-18T01:34:40;102351.81;;;-4.84;100.00
9419;BME280;4748;50.802;7.132;2022-12-18T01:37:05;102358.78;;;-4.85;100.00
9419;BME280;4748;50.802;7.132;2022-12-18T01:39:31;102358.63;;;-4.99;100.00
9419;BME280;4748;50.802;7.132;2022-12-18T01:42:01;102349.66;;;-4.93;100.00
9419;BME280;4748;50.802;7.132;2022-12-18T01:47:19;102340.75;;;-4.89;100.00
9419;BME280;4748;50.802;7.132;2022-12-18T01:49:45;102342.28;;;-4.85;100.00
9419;BME280;4748;50.802;7.132;2022-12-18T01:52:11;102351.19;;;-4.89;100.00
9419;BME280;4748;50.802;7.132;2022-12-18T01:54:36;102347.91;;;-4.93;100.00
9419;BME280;4748;50.802;7.132;2022-12-18T01:57:02;102348.75;;;-4.92;100.00
9419;BME280;4748;50.802;7.132;2022-12-18T01:59:29;102346.53;;;-5.00;100.00
9419;BME280;4748;50.802;7.132;2022-12-18T02:01:55;102341.56;;;-5.04;100.00
9419;BME280;4748;50.802;7.132;2022-12-18T02:04:27;102346.94;;;-5.07;100.00
9419;BME280;4748;50.802;7.132;2022-12-18T02:09:56;102347.25;;;-5.13;100.00
9419;BME280;4748;50.802;7.132;2022-12-18T02:12:49;102336.97;;;-5.16;100.00
9419;BME280;4748;50.802;7.132;2022-12-18T02:15:20;102348.34;;;-5.17;100.00
9419;BME280;4748;50.802;7.132;2022-12-18T02:18:19;102349.41;;;-5.21;100.00
9419;BME280;4748;50.802;7.132;2022-12-18T02:21:25;102348.47;;;-5.20;100.00
9419;BME280;4748;50.802;7.132;2022-12-18T02:26:36;102348.72;;;-5.24;100.00
9419;BME280;4748;50.802;7.132;2022-12-18T02:29:08;102350.03;;;-5.33;100.00
9419;BME280;4748;50.802;7.132;2022-12-18T02:31:39;102348.38;;;-5.34;100.00
9419;BME280;4748;50.802;7.132;2022-12-18T02:34:07;102341.38;;;-5.33;100.00
9419;BME280;4748;50.802;7.132;2022-12-18T02:36:36;102346.50;;;-5.32;100.00
9419;BME280;4748;50.802;7.132;2022-12-18T02:39:05;102353.75;;;-5.37;100.00
9419;BME280;4748;50.802;7.132;2022-12-18T02:41:32;102353.75;;;-5.37;100.00
9419;BME280;4748;50.802;7.132;2022-12-18T02:44:00;102343.16;;;-5.34;100.00
9419;BME280;4748;50.802;7.132;2022-12-18T02:46:36;102337.16;;;-5.36;100.00
9419;BME280;4748;50.802;7.132;2022-12-18T02:49:30;102334.38;;;-5.33;100.00
9419;BME280;4748;50.802;7.132;2022-12-18T02:54:57;102346.75;;;-5.36;100.00
9419;BME280;4748;50.802;7.132;2022-12-18T02:57:35;102338.22;;;-5.40;100.00
9419;BME280;4748;50.802;7.132;2022-12-18T03:00:09;102327.59;;;-5.35;100.00
9419;BME280;4748;50.802;7.132;2022-12-18T03:02:41;102327.66;;;-5.37;100.00
9419;BME280;4748;50.802;7.132;2022-12-18T03:07:49;102338.22;;;-5.40;100.00
9419;BME280;4748;50.802;7.132;2022-12-18T03:10:19;102336.56;;;-5.41;100.00
9419;BME280;4748;50.802;7.132;2022-12-18T03:12:51;102334.09;;;-5.44;100.00
9419;BME280;4748;50.802;7.132;2022-12-18T03:15:26;102337.63;;;-5.45;100.00
9419;BME280;4748;50.802;7.132;2022-12-18T03:17:59;102333.31;;;-5.46;100.00
9419;BME280;4748;50.802;7.132;2022-12-18T03:20:29;102338.69;;;-5.49;100.00
9419;BME280;4748;50.802;7.132;2022-12-18T03:23:00;102333.41;;;-5.47;100.00
9419;BME280;4748;50.802;7.132;2022-12-18T03:25:27;102329.09;;;-5.48;100.00
9419;BME280;4748;50.802;7.132;2022-12-18T03:27:55;102328.09;;;-5.46;100.00
9419;BME280;4748;50.802;7.132;2022-12-18T03:30:24;102321.06;;;-5.44;100.00
9419;BME280;4748;50.802;7.132;2022-12-18T03:33:02;102317.44;;;-5.41;100.00
9419;BME280;4748;50.802;7.132;2022-12-18T03:35:34;102313.84;;;-5.39;100.00
9419;BME280;4748;50.802;7.132;2022-12-18T03:38:01;102322.38;;;-5.35;100.00
9419;BME280;4748;50.802;7.132;2022-12-18T03:40:34;102302.50;;;-5.38;100.00
9419;BME280;4748;50.802;7.132;2022-12-18T03:43:10;102296.28;;;-5.35;100.00
9419;BME280;4748;50.802;7.132;2022-12-18T03:45:54;102316.75;;;-5.45;100.00
9419;BME280;4748;50.802;7.132;2022-12-18T03:48:56;102310.56;;;-5.42;100.00
9419;BME280;4748;50.802;7.132;2022-12-18T03:51:54;102320.75;;;-5.38;100.00
9419;BME280;4748;50.802;7.132;2022-12-18T03:54:23;102313.25;;;-5.44;100.00
9419;BME280;4748;50.802;7.132;2022-12-18T03:56:57;102307.25;;;-5.46;100.00
9419;BME280;4748;50.802;7.132;2022-12-18T03:59:23;102301.13;;;-5.45;100.00
9419;BME280;4748;50.802;7.132;2022-12-18T04:01:51;102303.66;;;-5.43;100.00
9419;BME280;4748;50.802;7.132;2022-12-18T04:04:20;102295.81;;;-5.43;100.00
9419;BME280;4748;50.802;7.132;2022-12-18T04:06:47;102296.50;;;-5.40;100.00
9419;BME280;4748;50.802;7.132;2022-12-18T04:09:14;102303.72;;;-5.45;100.00
9419;BME280;4748;50.802;7.132;2022-12-18T04:11:41;102304.13;;;-5.52;100.00
9419;BME280;4748;50.802;7.132;2022-12-18T04:14:09;102304.97;;;-5.52;100.00
9419;BME280;4748;50.802;7.132;2022-12-18T04:16:34;102297.88;;;-5.50;100.00
9419;BME280;4748;50.802;7.132;2022-12-18T04:18:59;102300.56;;;-5.51;100.00
9419;BME280;4748;50.802;7.132;2022-12-18T04:21:25;102283.28;;;-5.52;100.00
9419;BME280;4748;50.802;7.132;2022-12-18T04:23:50;102284.19;;;-5.53;100.00
9419;BME280;4748;50.802;7.132;2022-12-18T04:26:16;102294.53;;;-5.52;100.00
9419;BME280;4748;50.802;7.132;2022-12-18T04:28:41;102304.38;;;-5.57;100.00
9419;BME280;4748;50.802;7.132;2022-12-18T04:31:06;102303.75;;;-5.61;100.00
9419;BME280;4748;50.802;7.132;2022-12-18T04:33:32;102301.28;;;-5.64;100.00
9419;BME280;4748;50.802;7.132;2022-12-18T04:35:57;102297.78;;;-5.63;100.00
9419;BME280;4748;50.802;7.132;2022-12-18T04:38:23;102304.81;;;-5.65;100.00
9419;BME280;4748;50.802;7.132;2022-12-18T04:40:48;102292.72;;;-5.66;100.00
9419;BME280;4748;50.802;7.132;2022-12-18T04:43:13;102284.53;;;-5.76;100.00
9419;BME280;4748;50.802;7.132;2022-12-18T04:45:39;102301.75;;;-5.73;100.00
9419;BME280;4748;50.802;7.132;2022-12-18T04:48:04;102308.97;;;-5.78;100.00
9419;BME280;4748;50.802;7.132;2022-12-18T04:50:30;102311.28;;;-5.89;100.00
9419;BME280;4748;50.802;7.132;2022-12-18T04:52:55;102311.66;;;-5.80;100.00
9419;BME280;4748;50.802;7.132;2022-12-18T04:55:27;102296.88;;;-5.79;100.00
9419;BME280;4748;50.802;7.132;2022-12-18T04:57:53;102302.88;;;-5.77;100.00
9419;BME280;4748;50.802;7.132;2022-12-18T05:00:19;102297.66;;;-5.77;100.00
9419;BME280;4748;50.802;7.132;2022-12-18T05:02:44;102295.03;;;-5.77;100.00
9419;BME280;4748;50.802;7.132;2022-12-18T05:05:10;102288.94;;;-5.76;100.00
9419;BME280;4748;50.802;7.132;2022-12-18T05:07:35;102302.88;;;-5.77;100.00
9419;BME280;4748;50.802;7.132;2022-12-18T05:10:07;102288.84;;;-5.75;100.00
9419;BME280;4748;50.802;7.132;2022-12-18T05:12:32;102294.06;;;-5.75;100.00
9419;BME280;4748;50.802;7.132;2022-12-18T05:14:57;102285.97;;;-5.70;100.00
9419;BME280;4748;50.802;7.132;2022-12-18T05:17:23;102274.69;;;-5.71;100.00
9419;BME280;4748;50.802;7.132;2022-12-18T05:19:48;102276.38;;;-5.70;100.00
9419;BME280;4748;50.802;7.132;2022-12-18T05:22:14;102263.50;;;-5.73;100.00
9419;BME280;4748;50.802;7.132;2022-12-18T05:24:39;102274.84;;;-5.74;100.00
9419;BME280;4748;50.802;7.132;2022-12-18T05:27:04;102274.84;;;-5.74;100.00
9419;BME280;4748;50.802;7.132;2022-12-18T05:29:29;102269.97;;;-5.80;100.00
9419;BME280;4748;50.802;7.132;2022-12-18T05:31:55;102281.03;;;-5.75;100.00
9419;BME280;4748;50.802;7.132;2022-12-18T05:34:20;102277.03;;;-5.82;100.00
9419;BME280;4748;50.802;7.132;2022-12-18T05:36:46;102272.66;;;-5.81;100.00
9419;BME280;4748;50.802;7.132;2022-12-18T05:39:11;102274.94;;;-5.75;100.00
9419;BME280;4748;50.802;7.132;2022-12-18T05:41:36;102279.50;;;-5.79;100.00
9419;BME280;4748;50.802;7.132;2022-12-18T05:44:02;102279.25;;;-5.74;100.00
9419;BME280;4748;50.802;7.132;2022-12-18T05:46:27;102281.22;;;-5.79;100.00
9419;BME280;4748;50.802;7.132;2022-12-18T05:48:53;102279.34;;;-5.76;100.00
9419;BME280;4748;50.802;7.132;2022-12-18T05:51:20;102289.91;;;-5.79;100.00
9419;BME280;4748;50.802;7.132;2022-12-18T05:53:46;102296.75;;;-5.76;100.00
9419;BME280;4748;50.802;7.132;2022-12-18T05:56:18;102298.88;;;-5.84;100.00
9419;BME280;4748;50.802;7.132;2022-12-18T05:58:44;102288.13;;;-5.78;100.00
9419;BME280;4748;50.802;7.132;2022-12-18T06:01:13;102292.44;;;-5.77;100.00
9419;BME280;4748;50.802;7.132;2022-12-18T06:03:39;102300.81;;;-5.72;100.00
9419;BME280;4748;50.802;7.132;2022-12-18T06:06:11;102317.59;;;-5.76;100.00
9419;BME280;4748;50.802;7.132;2022-12-18T06:08:37;102311.00;;;-5.83;100.00
9419;BME280;4748;50.802;7.132;2022-12-18T06:11:03;102321.19;;;-5.79;100.00
9419;BME280;4748;50.802;7.132;2022-12-18T06:13:28;102326.78;;;-5.86;100.00
9419;BME280;4748;50.802;7.132;2022-12-18T06:15:53;102329.72;;;-5.94;100.00
9419;BME280;4748;50.802;7.132;2022-12-18T06:18:19;102327.91;;;-5.92;100.00
9419;BME280;4748;50.802;7.132;2022-12-18T06:20:44;102332.19;;;-5.91;100.00
9419;BME280;4748;50.802;7.132;2022-12-18T06:23:09;102340.56;;;-5.84;100.00
9419;BME280;4748;50.802;7.132;2022-12-18T06:25:37;102337.28;;;-5.88;100.00
9419;BME280;4748;50.802;7.132;2022-12-18T06:28:03;102342.34;;;-5.85;100.00
9419;BME280;4748;50.802;7.132;2022-12-18T06:30:28;102341.47;;;-5.85;100.00
9419;BME280;4748;50.802;7.132;2022-12-18T06:32:54;102346.69;;;-5.85;100.00
9419;BME280;4748;50.802;7.132;2022-12-18T06:35:22;102346.06;;;-5.90;100.00
9419;BME280;4748;50.802;7.132;2022-12-18T06:37:48;102337.28;;;-5.88;100.00
9419;BME280;4748;50.802;7.132;2022-12-18T06:40:13;102336.41;;;-5.88;100.00
9419;BME280;4748;50.802;7.132;2022-12-18T06:42:38;102339.63;;;-6.00;100.00
9419;BME280;4748;50.802;7.132;2022-12-18T06:45:04;102331.47;;;-6.11;100.00
9419;BME280;4748;50.802;7.132;2022-12-18T06:47:29;102321.69;;;-6.06;100.00
9419;BME280;4748;50.802;7.132;2022-12-18T06:49:55;102317.25;;;-6.04;100.00
9419;BME280;4748;50.802;7.132;2022-12-18T06:52:20;102327.75;;;-6.06;100.00
9419;BME280;4748;50.802;7.132;2022-12-18T06:54:45;102329.34;;;-6.03;100.00
9419;BME280;4748;50.802;7.132;2022-12-18T06:57:11;102339.72;;;-6.02;100.00
9419;BME280;4748;50.802;7.132;2022-12-18T06:59:36;102333.78;;;-6.05;100.00
9419;BME280;4748;50.802;7.132;2022-12-18T07:02:01;102327.09;;;-6.10;100.00
9419;BME280;4748;50.802;7.132;2022-12-18T07:04:30;102328.13;;;-6.13;100.00
9419;BME280;4748;50.802;7.132;2022-12-18T07:06:56;102324.56;;;-6.12;100.00
9419;BME280;4748;50.802;7.132;2022-12-18T07:09:22;102329.84;;;-6.13;100.00
9419;BME280;4748;50.802;7.132;2022-12-18T07:11:47;102320.91;;;-6.08;100.00
9419;BME280;4748;50.802;7.132;2022-12-18T07:14:13;102324.22;;;-6.05;100.00
9419;BME280;4748;50.802;7.132;2022-12-18T07:16:38;102320.59;;;-6.02;100.00
9419;BME280;4748;50.802;7.132;2022-12-18T07:19:03;102314.41;;;-6.00;100.00
9419;BME280;4748;50.802;7.132;2022-12-18T07:21:29;102334.25;;;-5.97;100.00
9419;BME280;4748;50.802;7.132;2022-12-18T07:23:54;102332.66;;;-6.00;100.00
9419;BME280;4748;50.802;7.132;2022-12-18T07:26:21;102335.09;;;-5.97;100.00
9419;BME280;4748;50.802;7.132;2022-12-18T07:28:47;102337.63;;;-5.95;100.00
9419;BME280;4748;50.802;7.132;2022-12-18T07:31:15;102343.06;;;-6.00;100.00
9419;BME280;4748;50.802;7.132;2022-12-18T07:33:41;102334.94;;;-5.94;100.00
9419;BME280;4748;50.802;7.132;2022-12-18T07:36:09;102329.72;;;-5.94;100.00
9419;BME280;4748;50.802;7.132;2022-12-18T07:38:35;102322.94;;;-5.96;100.00
9419;BME280;4748;50.802;7.132;2022-12-18T07:41:02;102322.72;;;-5.92;100.00
9419;BME280;4748;50.802;7.132;2022-12-18T07:43:28;102315.97;;;-5.96;100.00
9419;BME280;4748;50.802;7.132;2022-12-18T07:45:53;102314.97;;;-5.93;100.00
9419;BME280;4748;50.802;7.132;2022-12-18T07:48:19;102312.06;;;-5.87;100.00
9419;BME280;4748;50.802;7.132;2022-12-18T07:50:44;102307.91;;;-5.91;100.00
9419;BME280;4748;50.802;7.132;2022-12-18T07:53:09;102298.72;;;-5.81;100.00
9419;BME280;4748;50.802;7.132;2022-12-18T07:55:35;102308.00;;;-5.76;100.00
9419;BME280;4748;50.802;7.132;2022-12-18T07:58:02;102307.25;;;-5.62;100.00
9419;BME280;4748;50.802;7.132;2022-12-18T08:00:28;102310.34;;;-5.55;100.00
9419;BME280;4748;50.802;7.132;2022-12-18T08:02:53;102306.91;;;-5.55;100.00
9419;BME280;4748;50.802;7.132;2022-12-18T08:05:19;102301.44;;;-5.51;100.00
9419;BME280;4748;50.802;7.132;2022-12-18T08:07:45;102283.16;;;-5.34;100.00
9419;BME280;4748;50.802;7.132;2022-12-18T08:10:11;102286.03;;;-5.23;100.00
9419;BME280;4748;50.802;7.132;2022-12-18T08:12:36;102286.16;;;-5.09;100.00
9419;BME280;4748;50.802;7.132;2022-12-18T08:15:02;102282.13;;;-4.99;100.00
9419;BME280;4748;50.802;7.132;2022-12-18T08:17:27;102275.41;;;-4.88;100.00
9419;BME280;4748;50.802;7.132;2022-12-18T08:19:53;102282.59;;;-4.76;100.00
9419;BME280;4748;50.802;7.132;2022-12-18T08:22:18;102273.41;;;-4.67;100.00
9419;BME280;4748;50.802;7.132;2022-12-18T08:24:44;102270.88;;;-4.54;100.00
9419;BME280;4748;50.802;7.132;2022-12-18T08:27:10;102262.94;;;-4.37;100.00
9419;BME280;4748;50.802;7.132;2022-12-18T08:29:35;102260.03;;;-4.17;100.00
9419;BME280;4748;50.802;7.132;2022-12-18T08:32:00;102268.13;;;-4.06;100.00
9419;BME280;4748;50.802;7.132;2022-12-18T08:34:26;102258.66;;;-3.93;100.00
9419;BME280;4748;50.802;7.132;2022-12-18T08:36:51;102258.88;;;-3.82;100.00
9419;BME280;4748;50.802;7.132;2022-12-18T08:39:16;102259.16;;;-3.73;100.00
9419;BME280;4748;50.802;7.132;2022-12-18T08:41:42;102247.31;;;-3.64;100.00
9419;BME280;4748;50.802;7.132;2022-12-18T08:44:07;102252.84;;;-3.55;100.00
9419;BME280;4748;50.802;7.132;2022-12-18T08:46:52;102249.03;;;-3.50;100.00
9419;BME280;4748;50.802;7.132;2022-12-18T08:49:17;102255.72;;;-3.46;100.00
9419;BME280;4748;50.802;7.132;2022-12-18T08:51:43;102257.72;;;-3.35;100.00
9419;BME280;4748;50.802;7.132;2022-12-18T08:54:11;102261.75;;;-3.30;100.00
9419;BME280;4748;50.802;7.132;2022-12-18T08:56:37;102264.34;;;-3.16;100.00
9419;BME280;4748;50.802;7.132;2022-12-18T08:59:03;102252.38;;;-3.06;100.00
9419;BME280;4748;50.802;7.132;2022-12-18T09:01:29;102248.94;;;-2.93;100.00
9419;BME280;4748;50.802;7.132;2022-12-18T09:03:55;102238.56;;;-2.94;100.00
9419;BME280;4748;50.802;7.132;2022-12-18T09:06:22;102245.53;;;-2.81;100.00
9419;BME280;4748;50.802;7.132;2022-12-18T09:08:48;102253.66;;;-2.71;100.00
9419;BME280;4748;50.802;7.132;2022-12-18T09:11:24;102247.94;;;-2.64;100.00
9419;BME280;4748;50.802;7.132;2022-12-18T09:13:50;102244.81;;;-2.56;100.00
9419;BME280;4748;50.802;7.132;2022-12-18T09:16:17;102248.63;;;-2.48;100.00
9419;BME280;4748;50.802;7.132;2022-12-18T09:18:42;102250.13;;;-2.44;100.00
9419;BME280;4748;50.802;7.132;2022-12-18T09:21:13;102250.03;;;-2.43;100.00
9419;BME280;4748;50.802;7.132;2022-12-18T09:23:39;102256.75;;;-2.39;100.00
9419;BME280;4748;50.802;7.132;2022-12-18T09:26:05;102249.34;;;-2.32;100.00
9419;BME280;4748;50.802;7.132;2022-12-18T09:28:30;102250.72;;;-2.27;100.00
9419;BME280;4748;50.802;7.132;2022-12-18T09:30:56;102236.78;;;-2.27;100.00
9419;BME280;4748;50.802;7.132;2022-12-18T09:33:21;102234.00;;;-2.12;100.00
9419;BME280;4748;50.802;7.132;2022-12-18T09:35:46;102239.19;;;-1.98;100.00
9419;BME280;4748;50.802;7.132;2022-12-18T09:38:21;102227.84;;;-1.86;100.00
9419;BME280;4748;50.802;7.132;2022-12-18T09:40:51;102219.91;;;-1.72;100.00
9419;BME280;4748;50.802;7.132;2022-12-18T09:43:54;102214.16;;;-1.52;100.00
9419;BME280;4748;50.802;7.132;2022-12-18T09:46:29;102218.97;;;-1.47;100.00
9419;BME280;4748;50.802;7.132;2022-12-18T09:49:01;102212.06;;;-1.60;100.00
9419;BME280;4748;50.802;7.132;2022-12-18T09:51:37;102209.94;;;-1.43;100.00
9419;BME280;4748;50.802;7.132;2022-12-18T09:54:07;102208.16;;;-1.42;100.00
9419;BME280;4748;50.802;7.132;2022-12-18T09:56:40;102222.22;;;-1.31;100.00
9419;BME280;4748;50.802;7.132;2022-12-18T10:01:57;102207.00;;;-1.26;100.00
9419;BME280;4748;50.802;7.132;2022-12-18T10:04:24;102208.97;;;-1.17;100.00
9419;BME280;4748;50.802;7.132;2022-12-18T10:06:52;102189.44;;;-1.13;100.00
9419;BME280;4748;50.802;7.132;2022-12-18T10:14:58;102187.88;;;-0.92;100.00
9419;BME280;4748;50.802;7.132;2022-12-18T10:17:45;102185.56;;;-0.84;100.00
9419;BME280;4748;50.802;7.132;2022-12-18T10:20:31;102188.06;;;-0.70;100.00
9419;BME280;4748;50.802;7.132;2022-12-18T10:28:25;102186.66;;;-0.63;100.00
9419;BME280;4748;50.802;7.132;2022-12-18T10:30:51;102162.44;;;-0.56;100.00
9419;BME280;4748;50.802;7.132;2022-12-18T10:33:19;102160.50;;;-0.65;100.00
9419;BME280;4748;50.802;7.132;2022-12-18T10:35:47;102149.47;;;-0.47;100.00
9419;BME280;4748;50.802;7.132;2022-12-18T10:43:37;102161.97;;;-0.27;100.00
9419;BME280;4748;50.802;7.132;2022-12-18T10:48:35;102156.03;;;-0.18;100.00
9419;BME280;4748;50.802;7.132;2022-12-18T10:51:02;102158.81;;;-0.08;100.00
9419;BME280;4748;50.802;7.132;2022-12-18T10:53:29;102171.09;;;-0.09;100.00
9419;BME280;4748;50.802;7.132;2022-12-18T10:56:00;102169.66;;;-0.13;100.00
9419;BME280;4748;50.802;7.132;2022-12-18T11:01:17;102160.81;;;-0.12;100.00
9419;BME280;4748;50.802;7.132;2022-12-18T11:03:45;102162.97;;;-0.17;100.00
9419;BME280;4748;50.802;7.132;2022-12-18T11:06:13;102159.59;;;-0.19;100.00
9419;BME280;4748;50.802;7.132;2022-12-18T11:08:40;102151.97;;;-0.11;100.00
9419;BME280;4748;50.802;7.132;2022-12-18T11:11:21;102137.66;;;-0.07;100.00
9419;BME280;4748;50.802;7.132;2022-12-18T11:14:14;102134.41;;;-0.10;100.00
9419;BME280;4748;50.802;7.132;2022-12-18T11:16:44;102137.41;;;-0.04;100.00
9419;BME280;4748;50.802;7.132;2022-12-18T11:19:21;102135.50;;;-0.02;100.00
9419;BME280;4748;50.802;7.132;2022-12-18T11:21:50;102143.16;;;-0.10;100.00
9419;BME280;4748;50.802;7.132;2022-12-18T11:24:20;102138.94;;;-0.02;100.00
9419;BME280;4748;50.802;7.132;2022-12-18T11:26:47;102136.94;;;0.02;100.00
9419;BME280;4748;50.802;7.132;2022-12-18T11:29:17;102149.69;;;-0.15;100.00
9419;BME280;4748;50.802;7.132;2022-12-18T11:31:43;102140.94;;;-0.16;100.00
9419;BME280;4748;50.802;7.132;2022-12-18T11:34:12;102150.47;;;-0.02;100.00
9419;BME280;4748;50.802;7.132;2022-12-18T11:36:47;102136.44;;;-0.14;100.00
9419;BME280;4748;50.802;7.132;2022-12-18T11:39:39;102133.09;;;-0.05;100.00
9419;BME280;4748;50.802;7.132;2022-12-18T11:42:12;102128.66;;;-0.04;100.00
9419;BME280;4748;50.802;7.132;2022-12-18T11:44:46;102124.72;;;0.01;100.00
9419;BME280;4748;50.802;7.132;2022-12-18T11:47:27;102121.34;;;-0.12;100.00
9419;BME280;4748;50.802;7.132;2022-12-18T11:49:55;102124.38;;;-0.05;100.00
9419;BME280;4748;50.802;7.132;2022-12-18T11:52:43;102107.84;;;-0.07;100.00
9419;BME280;4748;50.802;7.132;2022-12-18T12:01:36;102104.19;;;0.06;100.00
9419;BME280;4748;50.802;7.132;2022-12-18T12:04:36;102100.19;;;-0.10;100.00
9419;BME280;4748;50.802;7.132;2022-12-18T12:07:24;102097.72;;;0.10;100.00
9419;BME280;4748;50.802;7.132;2022-12-18T12:12:46;102130.25;;;0.09;100.00
9419;BME280;4748;50.802;7.132;2022-12-18T12:18:18;102089.81;;;-0.01;100.00
9419;BME280;4748;50.802;7.132;2022-12-18T12:23:58;102084.22;;;0.14;100.00
9419;BME280;4748;50.802;7.132;2022-12-18T12:26:38;102091.72;;;-0.03;100.00
9419;BME280;4748;50.802;7.132;2022-12-18T12:29:30;102077.16;;;-0.07;100.00
9419;BME280;4748;50.802;7.132;2022-12-18T12:32:17;102074.63;;;-0.08;100.00
9419;BME280;4748;50.802;7.132;2022-12-18T12:40:06;102052.25;;;-0.03;100.00
9419;BME280;4748;50.802;7.132;2022-12-18T12:42:41;102041.72;;;-0.03;100.00
9419;BME280;4748;50.802;7.132;2022-12-18T12:45:53;102045.56;;;-0.07;100.00
9419;BME280;4748;50.802;7.132;2022-12-18T12:51:16;102059.56;;;-0.06;100.00
9419;BME280;4748;50.802;7.132;2022-12-18T12:53:42;102047.72;;;-0.01;100.00
9419;BME280;4748;50.802;7.132;2022-12-18T12:56:11;102050.81;;;0.04;100.00
9419;BME280;4748;50.802;7.132;2022-12-18T12:59:01;102056.47;;;0.10;100.00
9419;BME280;4748;50.802;7.132;2022-12-18T13:13:17;102027.97;;;0.15;100.00
9419;BME280;4748;50.802;7.132;2022-12-18T13:15:45;102043.53;;;0.18;100.00
9419;BME280;4748;50.802;7.132;2022-12-18T13:36:41;102042.47;;;0.21;100.00
9419;BME280;4748;50.802;7.132;2022-12-18T13:41:48;102044.16;;;0.33;100.00
9419;BME280;4748;50.802;7.132;2022-12-18T13:44:36;102032.16;;;0.18;100.00
9419;BME280;4748;50.802;7.132;2022-12-18T13:47:31;102034.91;;;0.05;100.00
9419;BME280;4748;50.802;7.132;2022-12-18T13:49:57;102035.66;;;0.07;100.00
9419;BME280;4748;50.802;7.132;2022-12-18T13:52:35;102030.72;;;0.14;100.00
9419;BME280;4748;50.802;7.132;2022-12-18T13:55:05;102030.50;;;0.17;100.00
9419;BME280;4748;50.802;7.132;2022-12-18T13:57:37;102030.88;;;0.23;100.00
9419;BME280;4748;50.802;7.132;2022-12-18T14:00:25;102036.84;;;0.14;100.00
9419;BME280;4748;50.802;7.132;2022-12-18T14:02:52;102024.03;;;0.21;100.00
9419;BME280;4748;50.802;7.132;2022-12-18T14:05:28;102034.19;;;0.25;100.00
9419;BME280;4748;50.802;7.132;2022-12-18T14:07:55;102032.66;;;0.23;100.00
9419;BME280;4748;50.802;7.132;2022-12-18T14:10:25;102032.53;;;0.24;100.00
9419;BME280;4748;50.802;7.132;2022-12-18T14:12:51;102024.88;;;0.10;100.00
9419;BME280;4748;50.802;7.132;2022-12-18T14:20:43;102008.72;;;0.04;100.00
9419;BME280;4748;50.802;7.132;2022-12-18T14:23:26;102005.38;;;0.02;100.00
9419;BME280;4748;50.802;7.132;2022-12-18T14:25:52;102013.88;;;0.05;100.00
9419;BME280;4748;50.802;7.132;2022-12-18T14:28:17;102009.22;;;-0.02;100.00
9419;BME280;4748;50.802;7.132;2022-12-18T14:30:45;102013.28;;;0.02;100.00
9419;BME280;4748;50.802;7.132;2022-12-18T14:33:13;102008.13;;;0.00;100.00
9419;BME280;4748;50.802;7.132;2022-12-18T14:35:58;101992.69;;;-0.15;100.00
9419;BME280;4748;50.802;7.132;2022-12-18T14:40:55;101994.16;;;-0.11;100.00
9419;BME280;4748;50.802;7.132;2022-12-18T14:43:21;101992.47;;;-0.12;100.00
9419;BME280;4748;50.802;7.132;2022-12-18T14:45:47;101984.56;;;-0.12;100.00
9419;BME280;4748;50.802;7.132;2022-12-18T14:48:32;101980.13;;;-0.11;100.00
9419;BME280;4748;50.802;7.132;2022-12-18T14:51:05;101975.25;;;-0.16;100.00
9419;BME280;4748;50.802;7.132;2022-12-18T14:53:40;101978.09;;;-0.19;100.00
9419;BME280;4748;50.802;7.132;2022-12-18T14:58:46;101988.16;;;-0.24;100.00